Time;durP1;ratioP1;P1;durP2;ratioP2;P2;SDS_P1;SDS_P2;PMS_P1;PMS_P2;Temp;Humidity;BMP_temperature;BMP_pressure;BME280_temperature;BME280_humidity;BME280_pressure;Samples;Min_cycle;Max_cycle;Signal;HPM_P1;HPM_P2
2022/03/28 00:00:18;;;;;;;32.42;18.92;;;230.50;2252.80;;;;;;4951919;29;20382;-55
2022/03/28 00:02:44;;;;;;;28.60;17.45;;;230.60;2252.80;;;;;;4951995;29;20028;-55
2022/03/28 00:05:14;;;;;;;23.45;15.73;;;230.60;2252.80;;;;;;4951666;29;20055;-54
2022/03/28 00:07:41;;;;;;;27.48;15.40;;;230.50;2252.80;;;;;;4951802;29;20031;-54
2022/03/28 00:10:07;;;;;;;21.98;14.27;;;230.40;2252.80;;;;;;4951960;29;20050;-54
2022/03/28 00:12:34;;;;;;;15.18;11.48;;;230.40;2252.80;;;;;;4951731;29;20036;-53
2022/03/28 00:15:01;;;;;;;16.10;11.10;;;205.70;2252.80;;;;;;4951676;29;20468;-55
2022/03/28 00:17:27;;;;;;;18.73;11.52;;;205.70;2252.80;;;;;;4952107;29;20065;-54
2022/03/28 00:19:53;;;;;;;21.15;12.15;;;205.70;2252.80;;;;;;4951961;29;20110;-54
2022/03/28 00:22:19;;;;;;;15.60;10.73;;;205.70;2252.80;;;;;;4951739;29;20055;-55
2022/03/28 00:24:44;;;;;;;17.25;11.40;;;205.70;2252.80;;;;;;4951945;29;20039;-54
2022/03/28 00:27:10;;;;;;;22.45;14.20;;;205.50;2252.80;;;;;;4951461;29;20024;-54
2022/03/28 00:29:36;;;;;;;28.52;13.48;;;205.50;2252.80;;;;;;4951914;28;20035;-54
2022/03/28 00:32:04;;;;;;;19.23;11.82;;;205.50;2252.80;;;;;;4955687;29;20035;-54
2022/03/28 00:34:29;;;;;;;26.88;16.38;;;205.40;2252.80;;;;;;4955412;29;20027;-55
2022/03/28 00:36:55;;;;;;;45.00;23.80;;;205.50;2252.80;;;;;;4955534;29;20028;-54
2022/03/28 00:39:21;;;;;;;59.50;26.88;;;230.50;2252.80;;;;;;4955303;29;20027;-55
2022/03/28 00:41:48;;;;;;;43.10;21.30;;;205.60;2252.80;;;;;;4955242;29;20478;-55
2022/03/28 00:44:14;;;;;;;25.42;17.67;;;205.60;2252.80;;;;;;4955306;29;20035;-54
2022/03/28 00:46:41;;;;;;;19.90;12.40;;;205.40;2252.80;;;;;;4955016;29;20042;-55
2022/03/28 00:49:07;;;;;;;23.83;14.45;;;205.30;2252.80;;;;;;4955418;29;20038;-55
2022/03/28 00:51:33;;;;;;;21.67;14.50;;;205.30;2252.80;;;;;;4955171;29;20389;-55
2022/03/28 00:54:00;;;;;;;19.20;12.48;;;205.20;2252.80;;;;;;4955055;29;20447;-55
2022/03/28 00:56:25;;;;;;;21.20;16.77;;;205.20;2252.80;;;;;;4955297;29;20069;-55
2022/03/28 00:58:51;;;;;;;116.72;103.93;;;205.30;2252.80;;;;;;4954981;29;20629;-55
2022/03/28 01:01:17;;;;;;;50.17;35.90;;;205.40;2252.80;;;;;;4954837;29;20027;-54
2022/03/28 01:03:43;;;;;;;21.27;14.13;;;205.30;2252.80;;;;;;4954882;29;20094;-53
2022/03/28 01:06:09;;;;;;;17.00;11.40;;;205.20;2252.80;;;;;;4954556;29;20118;-55
2022/03/28 01:08:35;;;;;;;17.75;12.23;;;205.00;2252.80;;;;;;4954972;29;20106;-54
2022/03/28 01:11:04;;;;;;;19.60;12.57;;;204.80;2252.80;;;;;;4954830;29;20098;-55
2022/03/28 01:13:34;;;;;;;18.88;12.93;;;204.80;2252.80;;;;;;4954592;29;20039;-55
2022/03/28 01:16:00;;;;;;;15.15;11.30;;;204.90;2252.80;;;;;;4954412;29;20031;-55
2022/03/28 01:18:27;;;;;;;16.55;11.57;;;204.90;2252.80;;;;;;4954625;29;20030;-55
2022/03/28 01:20:55;;;;;;;20.73;15.25;;;204.90;2252.80;;;;;;4954650;29;20027;-55
2022/03/28 01:23:21;;;;;;;21.45;14.43;;;204.90;2252.80;;;;;;4954548;29;20024;-55
2022/03/28 01:25:51;;;;;;;16.13;11.85;;;204.90;2252.80;;;;;;4954521;29;20101;-55
2022/03/28 01:28:18;;;;;;;22.27;13.07;;;180.10;2252.80;;;;;;4954559;29;20105;-54
2022/03/28 01:30:44;;;;;;;25.75;15.13;;;204.80;2252.80;;;;;;4954263;29;20134;-55
2022/03/28 01:33:09;;;;;;;48.80;36.08;;;205.00;2252.80;;;;;;4954252;29;20062;-55
2022/03/28 01:35:41;;;;;;;22.77;13.95;;;204.90;2252.80;;;;;;4954302;29;20031;-54
2022/03/28 01:38:09;;;;;;;15.90;11.15;;;180.10;2252.80;;;;;;4954329;29;20050;-54
2022/03/28 01:40:38;;;;;;;16.85;11.75;;;180.10;2252.80;;;;;;4954256;29;20101;-54
2022/03/28 01:43:04;;;;;;;20.20;11.07;;;180.00;2252.80;;;;;;4953115;29;20023;-54
2022/03/28 01:45:30;;;;;;;19.92;11.02;;;180.10;2252.80;;;;;;4954151;29;20043;-54
2022/03/28 01:47:56;;;;;;;14.43;8.88;;;180.10;2252.80;;;;;;4954602;29;20027;-55
2022/03/28 01:50:22;;;;;;;19.95;11.60;;;180.10;2252.80;;;;;;4953846;29;20039;-54
2022/03/28 01:52:48;;;;;;;18.95;12.02;;;204.80;2252.80;;;;;;4954011;29;20030;-55
2022/03/28 01:55:14;;;;;;;20.67;12.32;;;204.80;2252.80;;;;;;4954093;29;20029;-54
2022/03/28 01:57:41;;;;;;;20.02;13.57;;;204.80;2252.80;;;;;;4953774;29;20110;-55
2022/03/28 02:00:15;;;;;;;21.65;13.07;;;180.10;2252.80;;;;;;4953937;29;20090;-54
2022/03/28 02:02:41;;;;;;;19.80;10.82;;;180.00;2252.80;;;;;;4953707;29;20027;-55
2022/03/28 02:05:11;;;;;;;22.42;11.80;;;180.00;2252.80;;;;;;4953796;29;20043;-55
2022/03/28 02:07:39;;;;;;;16.52;10.77;;;180.00;2252.80;;;;;;4953861;29;20032;-54
2022/03/28 02:10:06;;;;;;;18.65;9.80;;;180.00;2252.80;;;;;;4953780;29;20058;-54
2022/03/28 02:12:31;;;;;;;15.00;10.75;;;180.10;2252.80;;;;;;4953512;29;20164;-54
2022/03/28 02:14:57;;;;;;;15.32;10.60;;;180.10;2252.80;;;;;;4953769;29;20048;-55
2022/03/28 02:17:23;;;;;;;17.58;10.80;;;180.00;2252.80;;;;;;4948523;29;20035;-54
2022/03/28 02:19:49;;;;;;;15.73;10.18;;;179.80;2252.80;;;;;;4953262;28;20082;-55
2022/03/28 02:22:14;;;;;;;15.60;11.02;;;179.80;2252.80;;;;;;4953599;29;20058;-54
2022/03/28 02:24:40;;;;;;;17.80;10.80;;;179.70;2252.80;;;;;;4953337;29;20470;-55
2022/03/28 02:27:07;;;;;;;17.67;9.98;;;179.30;2252.80;;;;;;4953506;29;20023;-54
2022/03/28 02:29:33;;;;;;;18.10;9.65;;;154.50;2252.80;;;;;;4953304;29;20035;-55
2022/03/28 02:31:59;;;;;;;16.52;10.80;;;179.30;2252.80;;;;;;4953010;29;20039;-55
2022/03/28 02:34:25;;;;;;;19.20;10.18;;;179.60;2252.80;;;;;;4953438;29;20038;-54
2022/03/28 02:36:51;;;;;;;13.25;10.15;;;179.70;2252.80;;;;;;4952968;29;20032;-54
2022/03/28 02:39:17;;;;;;;17.08;13.18;;;179.60;2252.80;;;;;;4953226;29;20038;-54
2022/03/28 02:41:43;;;;;;;12.18;9.20;;;179.60;2252.80;;;;;;4953093;29;20036;-55
2022/03/28 02:44:10;;;;;;;18.67;15.90;;;179.70;2252.80;;;;;;4952871;29;20439;-55
2022/03/28 02:46:36;;;;;;;14.27;10.70;;;179.70;2252.80;;;;;;4953311;29;20023;-55
2022/03/28 02:49:03;;;;;;;22.23;12.77;;;179.60;2252.80;;;;;;4952983;29;20059;-54
2022/03/28 02:51:29;;;;;;;15.95;10.75;;;179.70;2252.80;;;;;;4952799;29;20106;-55
2022/03/28 02:53:55;;;;;;;18.25;12.60;;;179.70;2252.80;;;;;;4953110;28;20027;-54
2022/03/28 02:56:21;;;;;;;22.70;12.07;;;179.70;2252.80;;;;;;4952756;29;20043;-54
2022/03/28 02:58:46;;;;;;;18.02;12.40;;;179.60;2252.80;;;;;;4952923;29;20075;-54
2022/03/28 03:01:12;;;;;;;16.27;11.73;;;179.60;2252.80;;;;;;4952671;29;20086;-52
2022/03/28 03:03:38;;;;;;;15.85;10.23;;;179.70;2252.80;;;;;;4952455;29;20082;-55
2022/03/28 03:06:04;;;;;;;18.30;11.10;;;179.70;2252.80;;;;;;4952603;29;20031;-54
2022/03/28 03:08:29;;;;;;;14.65;10.27;;;179.80;2252.80;;;;;;4952562;29;20034;-55
2022/03/28 03:10:55;;;;;;;12.98;8.88;;;179.70;2252.80;;;;;;4952789;29;20111;-55
2022/03/28 03:13:21;;;;;;;14.48;8.63;;;179.70;2252.80;;;;;;4952425;29;20069;-55
2022/03/28 03:15:47;;;;;;;17.10;9.05;;;179.80;2252.80;;;;;;4950642;29;20115;-55
2022/03/28 03:18:12;;;;;;;13.23;9.20;;;179.80;2252.80;;;;;;4952509;29;20474;-55
2022/03/28 03:20:38;;;;;;;13.20;8.35;;;179.80;2252.80;;;;;;4952312;29;20023;-55
2022/03/28 03:23:04;;;;;;;17.23;9.07;;;179.80;2252.80;;;;;;4952502;29;20489;-55
2022/03/28 03:25:30;;;;;;;16.92;10.95;;;179.70;2252.80;;;;;;4952233;29;20062;-55
2022/03/28 03:27:57;;;;;;;16.40;10.38;;;179.60;2252.80;;;;;;4952317;29;20023;-55
2022/03/28 03:30:23;;;;;;;14.52;10.73;;;179.60;2252.80;;;;;;4952305;29;20035;-55
2022/03/28 03:32:49;;;;;;;17.30;10.48;;;179.50;2252.80;;;;;;4952354;29;20038;-55
2022/03/28 03:35:15;;;;;;;19.02;11.48;;;179.40;2252.80;;;;;;4952231;29;20482;-54
2022/03/28 03:37:41;;;;;;;17.17;10.40;;;154.50;2252.80;;;;;;4952078;29;20078;-54
2022/03/28 03:40:07;;;;;;;18.88;10.95;;;179.20;2252.80;;;;;;4944470;29;20035;-55
2022/03/28 03:42:33;;;;;;;16.05;9.70;;;154.40;2252.80;;;;;;4952042;28;20043;-55
2022/03/28 03:45:00;;;;;;;17.40;11.55;;;154.40;2252.80;;;;;;4951923;29;20034;-54
2022/03/28 03:47:26;;;;;;;16.65;11.00;;;154.50;2252.80;;;;;;4952496;29;20370;-54
2022/03/28 03:49:51;;;;;;;18.13;10.95;;;154.40;2252.80;;;;;;4952043;29;20039;-53
2022/03/28 03:52:17;;;;;;;17.27;10.60;;;154.20;2252.80;;;;;;4952077;29;20046;-53
2022/03/28 03:54:43;;;;;;;21.85;14.90;;;153.90;2252.80;;;;;;4952187;29;20497;-55
2022/03/28 03:57:09;;;;;;;26.17;14.95;;;153.80;2252.80;;;;;;4951856;29;20067;-55
2022/03/28 03:59:35;;;;;;;27.80;16.73;;;153.80;2252.80;;;;;;4952091;29;20103;-54
2022/03/28 04:02:01;;;;;;;52.78;29.13;;;153.90;2252.80;;;;;;4951896;29;20035;-54
2022/03/28 04:04:26;;;;;;;20.20;13.60;;;153.90;2252.80;;;;;;4952090;28;20051;-54
2022/03/28 04:06:52;;;;;;;66.78;41.72;;;154.00;2252.80;;;;;;4956088;29;20533;-54
2022/03/28 04:09:18;;;;;;;45.92;35.85;;;154.10;2252.80;;;;;;4973977;28;20097;-55
2022/03/28 04:11:44;;;;;;;23.63;17.58;;;154.20;2252.80;;;;;;4975126;28;20073;-55
2022/03/28 04:14:10;;;;;;;23.70;16.23;;;154.10;2252.80;;;;;;4975081;28;20060;-54
2022/03/28 04:16:36;;;;;;;40.95;23.75;;;154.20;2252.80;;;;;;4974793;28;20181;-55
2022/03/28 04:19:02;;;;;;;38.13;20.08;;;154.30;2252.80;;;;;;4975095;28;20022;-55
2022/03/28 04:21:27;;;;;;;18.55;11.10;;;154.30;2252.80;;;;;;4975024;28;20039;-54
2022/03/28 04:23:53;;;;;;;17.80;10.45;;;154.30;2252.80;;;;;;4975119;28;20082;-54
2022/03/28 04:26:19;;;;;;;15.07;8.80;;;154.30;2252.80;;;;;;4974763;28;20034;-55
2022/03/28 04:28:45;;;;;;;13.80;10.80;;;154.30;2252.80;;;;;;4975103;28;20026;-54
2022/03/28 04:31:12;;;;;;;16.38;10.57;;;154.30;2252.80;;;;;;4965337;28;20078;-55
2022/03/28 04:33:38;;;;;;;14.43;10.05;;;154.40;2252.80;;;;;;4955471;29;20023;-55
2022/03/28 04:36:04;;;;;;;18.55;11.05;;;154.50;2252.80;;;;;;4955416;29;20144;-55
2022/03/28 04:38:30;;;;;;;17.13;10.07;;;154.40;2252.80;;;;;;4955413;29;20033;-55
2022/03/28 04:40:55;;;;;;;20.95;11.38;;;154.30;2252.80;;;;;;4955611;29;20031;-55
2022/03/28 04:43:22;;;;;;;16.40;10.70;;;154.30;2252.80;;;;;;4955082;29;20070;-55
2022/03/28 04:45:48;;;;;;;34.70;22.83;;;154.10;2252.80;;;;;;4955335;29;20031;-54
2022/03/28 04:48:14;;;;;;;21.15;13.05;;;154.20;2252.80;;;;;;4955500;29;20100;-54
2022/03/28 04:50:40;;;;;;;19.45;11.90;;;154.20;2252.80;;;;;;4954968;29;20036;-55
2022/03/28 04:53:06;;;;;;;19.02;12.27;;;154.20;2252.80;;;;;;4955366;29;20027;-54
2022/03/28 04:55:32;;;;;;;20.17;12.40;;;154.30;2252.80;;;;;;4954938;29;20027;-56
2022/03/28 04:57:58;;;;;;;22.13;11.15;;;154.40;2252.80;;;;;;4959082;28;20038;-57
2022/03/28 05:00:24;;;;;;;16.50;11.45;;;179.30;2252.80;;;;;;4963882;28;20027;-54
2022/03/28 05:02:50;;;;;;;17.63;11.75;;;179.40;2252.80;;;;;;4964765;28;20027;-56
2022/03/28 05:05:15;;;;;;;19.33;11.55;;;179.60;2252.80;;;;;;4969004;28;20047;-55
2022/03/28 05:07:42;;;;;;;37.65;17.20;;;179.70;2252.80;;;;;;4971737;28;20033;-55
2022/03/28 05:10:08;;;;;;;22.33;12.77;;;205.00;2252.80;;;;;;4964907;28;20028;-54
2022/03/28 05:12:34;;;;;;;28.10;12.75;;;205.20;2252.80;;;;;;4965416;28;20035;-55
2022/03/28 05:15:01;;;;;;;23.88;13.82;;;205.20;2252.80;;;;;;4963821;28;20058;-56
2022/03/28 05:17:31;;;;;;;17.90;12.32;;;205.10;2252.80;;;;;;4962203;28;20023;-56
2022/03/28 05:19:59;;;;;;;21.30;12.32;;;205.10;2252.80;;;;;;4960247;28;20031;-61
2022/03/28 05:22:25;;;;;;;18.92;12.43;;;205.10;2252.80;;;;;;4964991;28;20374;-55
2022/03/28 05:24:52;;;;;;;15.48;11.23;;;205.20;2252.80;;;;;;4963791;28;20148;-56
2022/03/28 05:27:18;;;;;;;19.27;11.98;;;205.20;2252.80;;;;;;4964000;28;20496;-56
2022/03/28 05:29:44;;;;;;;19.20;11.77;;;205.30;2252.80;;;;;;4963181;28;20418;-65
2022/03/28 05:32:11;;;;;;;15.88;11.52;;;205.40;2252.80;;;;;;4963237;28;20035;-60
2022/03/28 05:34:37;;;;;;;19.50;12.68;;;205.50;2252.80;;;;;;4954529;29;20028;-56
2022/03/28 05:37:09;;;;;;;24.95;16.95;;;205.60;2252.80;;;;;;4954307;29;20478;-56
2022/03/28 05:39:36;;;;;;;26.93;16.10;;;205.70;2252.80;;;;;;4967489;28;20422;-55
2022/03/28 05:42:03;;;;;;;24.00;13.23;;;230.70;2252.80;;;;;;4973514;28;20245;-59
2022/03/28 05:44:28;;;;;;;16.48;10.75;;;281.90;2278.40;;;;;;4973447;28;20026;-60
2022/03/28 05:46:54;;;;;;;15.48;10.90;;;282.00;2278.40;;;;;;4973652;28;20033;-57
2022/03/28 05:49:22;;;;;;;16.00;11.48;;;282.40;2278.40;;;;;;4973346;28;20359;-61
2022/03/28 05:51:48;;;;;;;16.02;11.20;;;307.70;2227.20;;;;;;4973179;28;20381;-57
2022/03/28 05:54:14;;;;;;;16.48;10.90;;;307.90;2176.00;;;;;;4973537;28;20023;-58
2022/03/28 05:56:40;;;;;;;20.55;14.48;;;307.80;2227.20;;;;;;4975338;28;20031;-57
2022/03/28 05:59:07;;;;;;;16.08;11.52;;;358.40;2073.60;;;;;;4975339;28;20026;-57
2022/03/28 06:01:34;;;;;;;16.45;10.82;;;384.90;1817.60;;;;;;4973430;28;20077;-59
2022/03/28 06:04:00;;;;;;;16.27;11.20;;;410.20;1715.20;;;;;;4972797;28;20505;-60
2022/03/28 06:06:26;;;;;;;16.27;13.00;;;435.80;1638.40;;;;;;4973554;28;20381;-60
2022/03/28 06:08:53;;;;;;;16.52;11.93;;;460.90;1612.80;;;;;;4972809;28;20023;-57
2022/03/28 06:11:19;;;;;;;21.25;14.27;;;486.70;1510.40;;;;;;4972857;28;20035;-62
2022/03/28 06:13:44;;;;;;;51.38;36.33;;;512.70;1408.00;;;;;;4972992;28;20147;-57
2022/03/28 06:16:10;;;;;;;67.07;50.60;;;563.80;1305.60;;;;;;4972841;28;20122;-58
2022/03/28 06:18:36;;;;;;;75.85;58.47;;;589.70;1228.80;;;;;;4972905;28;20023;-57
2022/03/28 06:21:02;;;;;;;94.50;71.20;;;640.00;1126.40;;;;;;4972742;28;20041;-57
2022/03/28 06:23:28;;;;;;;66.28;56.53;;;665.60;1100.80;;;;;;4972866;28;20608;-62
2022/03/28 06:25:53;;;;;;;72.93;57.97;;;666.00;1049.60;;;;;;4972960;28;20034;-65
2022/03/28 06:28:19;;;;;;;69.38;59.45;;;640.70;1075.20;;;;;;4972095;28;20022;-61
2022/03/28 06:30:45;;;;;;;79.28;70.25;;;666.50;1049.60;;;;;;4972596;28;20037;-60
2022/03/28 06:33:11;;;;;;;67.28;53.90;;;666.20;1049.60;;;;;;4972389;28;20128;-59
2022/03/28 06:35:39;;;;;;;59.80;49.00;;;691.20;1024.00;;;;;;4972659;28;20031;-58
2022/03/28 06:38:05;;;;;;;46.80;41.60;;;691.70;998.40;;;;;;4972678;28;20112;-57
2022/03/28 06:40:31;;;;;;;45.83;41.25;;;666.20;1024.00;;;;;;4972200;28;20062;-57
2022/03/28 06:42:56;;;;;;;46.33;41.45;;;691.20;1024.00;;;;;;4972314;28;20035;-58
2022/03/28 06:45:22;;;;;;;50.30;44.95;;;666.20;1049.60;;;;;;4972214;28;20470;-57
2022/03/28 06:47:51;;;;;;;50.17;43.70;;;691.60;998.40;;;;;;4972026;28;20022;-57
2022/03/28 06:50:18;;;;;;;48.25;43.20;;;665.70;1075.20;;;;;;4971918;28;20614;-62
2022/03/28 06:52:44;;;;;;;47.67;42.83;;;692.10;972.80;;;;;;4972405;28;20031;-57
2022/03/28 06:55:10;;;;;;;52.15;47.17;;;716.90;998.40;;;;;;4972220;28;20106;-55
2022/03/28 06:57:37;;;;;;;52.45;46.83;;;716.90;998.40;;;;;;4972266;28;20027;-56
2022/03/28 07:00:06;;;;;;;47.35;42.60;;;742.70;972.80;;;;;;4971998;28;20055;-55
2022/03/28 07:02:32;;;;;;;45.25;39.53;;;742.90;947.20;;;;;;4971651;28;20035;-58
2022/03/28 07:04:58;;;;;;;44.10;36.03;;;742.80;947.20;;;;;;4971703;28;20524;-56
2022/03/28 07:07:24;;;;;;;33.28;30.08;;;743.10;947.20;;;;;;4972059;28;20019;-60
2022/03/28 07:09:50;;;;;;;35.58;29.85;;;692.10;998.40;;;;;;4971899;28;20399;-56
2022/03/28 07:12:16;;;;;;;28.65;25.08;;;691.30;1024.00;;;;;;4971734;28;20130;-58
2022/03/28 07:14:42;;;;;;;32.50;27.30;;;691.30;1024.00;;;;;;4971646;28;20035;-61
2022/03/28 07:17:09;;;;;;;40.30;31.30;;;716.80;998.40;;;;;;4971752;28;20096;-55
2022/03/28 07:19:36;;;;;;;44.47;33.85;;;717.60;972.80;;;;;;4971715;28;20023;-59
2022/03/28 07:22:03;;;;;;;48.28;36.72;;;717.70;972.80;;;;;;4971281;28;20037;-56
2022/03/28 07:24:29;;;;;;;48.25;38.17;;;717.70;972.80;;;;;;4971497;28;20033;-58
2022/03/28 07:26:55;;;;;;;56.70;39.80;;;716.90;1024.00;;;;;;4971893;28;20022;-56
2022/03/28 07:29:21;;;;;;;45.90;40.88;;;665.80;1100.80;;;;;;4971455;28;20023;-55
2022/03/28 07:31:50;;;;;;;49.05;38.15;;;666.20;1075.20;;;;;;4971476;28;20038;-56
2022/03/28 07:34:38;;;;;;;52.65;36.92;;;665.70;1100.80;;;;;;4971689;28;20023;-62
2022/03/28 07:37:06;;;;;;;44.92;32.95;;;716.90;1024.00;;;;;;4963852;28;20046;-62
2022/03/28 07:39:34;;;;;;;39.83;30.15;;;716.90;1049.60;;;;;;4970333;28;20026;-58
2022/03/28 07:42:01;;;;;;;30.00;23.70;;;742.60;998.40;;;;;;4971100;28;20133;-60
2022/03/28 07:44:26;;;;;;;30.17;22.17;;;793.90;896.00;;;;;;4971469;28;20041;-62
2022/03/28 07:46:52;;;;;;;20.73;18.15;;;742.50;947.20;;;;;;4971080;28;20098;-59
2022/03/28 07:49:18;;;;;;;36.70;24.77;;;717.30;972.80;;;;;;4961196;28;20049;-57
2022/03/28 07:51:45;;;;;;;32.22;23.23;;;717.30;972.80;;;;;;4959921;28;20035;-56
2022/03/28 07:54:11;;;;;;;23.92;20.73;;;768.30;921.60;;;;;;4959825;28;20026;-57
2022/03/28 07:56:38;;;;;;;28.63;22.33;;;742.70;972.80;;;;;;4961301;28;20023;-59
2022/03/28 07:59:04;;;;;;;34.08;28.15;;;717.20;998.40;;;;;;4958646;28;20034;-58
2022/03/28 08:01:29;;;;;;;26.85;21.48;;;768.70;921.60;;;;;;4951861;29;20035;-58
2022/03/28 08:03:55;;;;;;;21.48;18.92;;;768.80;896.00;;;;;;4956487;28;20047;-56
2022/03/28 08:06:21;;;;;;;23.52;20.25;;;819.20;870.40;;;;;;4960445;28;20024;-56
2022/03/28 08:08:47;;;;;;;22.60;19.35;;;794.00;896.00;;;;;;4959219;28;20594;-64
2022/03/28 08:11:15;;;;;;;29.55;23.17;;;794.40;870.40;;;;;;4960869;28;20106;-62
2022/03/28 08:13:41;;;;;;;22.65;19.80;;;820.00;870.40;;;;;;4959787;28;20035;-59
2022/03/28 08:16:08;;;;;;;46.03;30.45;;;793.90;896.00;;;;;;4959045;28;20037;-57
2022/03/28 08:18:37;;;;;;;30.20;18.88;;;794.50;870.40;;;;;;4961178;28;20038;-56
2022/03/28 08:21:03;;;;;;;26.30;22.95;;;819.80;844.80;;;;;;4960396;28;20039;-57
2022/03/28 08:23:29;;;;;;;19.65;13.88;;;844.80;870.40;;;;;;4958844;28;20037;-56
2022/03/28 08:25:55;;;;;;;22.13;17.95;;;768.80;870.40;;;;;;4960935;28;20039;-62
2022/03/28 08:28:21;;;;;;;25.35;19.27;;;819.50;844.80;;;;;;4960099;28;20466;-65
2022/03/28 08:30:47;;;;;;;21.35;19.17;;;793.70;896.00;;;;;;4958961;28;20045;-60
2022/03/28 08:33:13;;;;;;;19.40;17.30;;;819.60;870.40;;;;;;4960612;28;20369;-57
2022/03/28 08:35:39;;;;;;;17.33;15.63;;;845.10;844.80;;;;;;4959550;28;20023;-58
2022/03/28 08:38:05;;;;;;;19.63;16.40;;;794.50;870.40;;;;;;4959516;28;20030;-55
2022/03/28 08:40:31;;;;;;;18.70;16.85;;;794.20;870.40;;;;;;4960800;28;20466;-56
2022/03/28 08:42:57;;;;;;;17.08;13.55;;;768.50;896.00;;;;;;4959462;28;20035;-58
2022/03/28 08:45:23;;;;;;;14.32;12.35;;;794.00;896.00;;;;;;4957187;28;20019;-57
2022/03/28 08:47:50;;;;;;;21.92;17.23;;;794.50;870.40;;;;;;4951492;29;20442;-58
2022/03/28 08:50:16;;;;;;;15.60;13.63;;;844.90;870.40;;;;;;4951464;28;20154;-66
2022/03/28 08:52:43;;;;;;;21.48;16.92;;;793.90;896.00;;;;;;4954651;29;20033;-57
2022/03/28 08:55:13;;;;;;;14.70;11.18;;;819.20;870.40;;;;;;4955049;29;20454;-57
2022/03/28 08:57:39;;;;;;;12.90;10.30;;;794.00;896.00;;;;;;4961173;28;20422;-59
2022/03/28 09:00:09;;;;;;;13.23;11.13;;;768.60;870.40;;;;;;4962199;28;20027;-55
2022/03/28 09:02:42;;;;;;;14.57;10.68;;;717.40;947.20;;;;;;4963494;28;20022;-65
2022/03/28 09:05:09;;;;;;;14.95;12.48;;;691.80;921.60;;;;;;4964128;28;20043;-59
2022/03/28 09:07:35;;;;;;;17.17;9.75;;;665.80;998.40;;;;;;4962849;28;20118;-56
2022/03/28 09:10:07;;;;;;;17.10;8.88;;;665.60;998.40;;;;;;4962265;28;20249;-65
2022/03/28 09:12:40;;;;;;;11.68;10.43;;;614.80;1075.20;;;;;;4963461;28;20047;-56
2022/03/28 09:15:14;;;;;;;10.20;7.68;;;589.70;1100.80;;;;;;4964023;28;20447;-58
2022/03/28 09:17:40;;;;;;;8.80;7.45;;;589.30;1100.80;;;;;;4963643;28;20106;-57
2022/03/28 09:20:07;;;;;;;13.20;9.50;;;589.00;1126.40;;;;;;4961864;28;20027;-55
2022/03/28 09:22:36;;;;;;;13.98;9.30;;;588.90;1152.00;;;;;;4963210;28;20026;-56
2022/03/28 09:25:10;;;;;;;12.50;8.90;;;589.30;1152.00;;;;;;4963336;28;20521;-56
2022/03/28 09:27:41;;;;;;;24.73;14.25;;;589.00;1177.60;;;;;;4963449;28;20102;-56
2022/03/28 09:30:19;;;;;;;14.65;9.13;;;563.60;1203.20;;;;;;4963634;28;20109;-65
2022/03/28 09:32:47;;;;;;;15.10;11.18;;;564.10;1177.60;;;;;;4962832;28;20045;-66
2022/03/28 09:35:30;;;;;;;24.38;12.55;;;563.90;1177.60;;;;;;4963481;28;20034;-63
2022/03/28 09:38:05;;;;;;;13.85;7.68;;;564.10;1177.60;;;;;;4961975;28;20039;-59
2022/03/28 09:40:51;;;;;;;16.30;9.07;;;563.70;1203.20;;;;;;4963836;28;20027;-58
2022/03/28 09:43:30;;;;;;;10.70;8.55;;;563.70;1203.20;;;;;;4963155;28;20049;-64
2022/03/28 09:45:58;;;;;;;18.17;9.88;;;563.60;1203.20;;;;;;4963201;28;20113;-63
2022/03/28 09:48:26;;;;;;;16.25;9.50;;;563.60;1228.80;;;;;;4963093;28;20074;-59
2022/03/28 09:51:03;;;;;;;12.52;8.13;;;538.10;1228.80;;;;;;4958793;28;20497;-56
2022/03/28 09:53:36;;;;;;;11.73;8.85;;;538.30;1228.80;;;;;;4954012;29;20023;-63
2022/03/28 09:56:11;;;;;;;15.70;8.75;;;563.30;1228.80;;;;;;4958070;28;20491;-62
2022/03/28 09:58:42;;;;;;;12.57;9.55;;;563.50;1254.40;;;;;;4963455;28;20019;-63
2022/03/28 10:01:38;;;;;;;15.40;10.00;;;563.30;1228.80;;;;;;4966561;28;20030;-62
2022/03/28 10:04:09;;;;;;;11.90;8.93;;;563.20;1254.40;;;;;;4971962;28;20051;-56
2022/03/28 10:06:37;;;;;;;15.05;10.95;;;563.20;1228.80;;;;;;4972831;28;20493;-64
2022/03/28 10:09:04;;;;;;;14.13;10.75;;;563.20;1228.80;;;;;;4973015;28;20023;-57
2022/03/28 10:11:30;;;;;;;11.30;9.93;;;538.50;1203.20;;;;;;4972834;28;20031;-57
2022/03/28 10:13:57;;;;;;;12.95;8.98;;;538.00;1254.40;;;;;;4972970;28;20114;-64
2022/03/28 10:16:23;;;;;;;13.68;7.97;;;537.80;1254.40;;;;;;4973013;28;20038;-57
2022/03/28 10:18:50;;;;;;;14.63;9.20;;;538.00;1254.40;;;;;;4973087;28;20034;-57
2022/03/28 10:21:32;;;;;;;13.40;9.55;;;538.30;1254.40;;;;;;4972874;28;20031;-64
2022/03/28 10:24:20;;;;;;;13.35;10.07;;;538.30;1254.40;;;;;;4972671;28;20054;-56
2022/03/28 10:26:51;;;;;;;17.30;9.45;;;538.00;1280.00;;;;;;4972768;28;20465;-57
2022/03/28 10:29:18;;;;;;;14.77;9.27;;;537.60;1280.00;;;;;;4972968;28;20023;-63
2022/03/28 10:31:55;;;;;;;16.77;9.50;;;537.90;1280.00;;;;;;4972431;28;20552;-63
2022/03/28 10:35:04;;;;;;;15.18;10.30;;;538.00;1280.00;;;;;;4972763;28;20023;-58
2022/03/28 10:37:50;;;;;;;16.17;10.73;;;537.90;1280.00;;;;;;4972580;28;20470;-56
2022/03/28 10:40:28;;;;;;;15.02;9.70;;;512.90;1254.40;;;;;;4972294;28;20073;-64
2022/03/28 10:43:12;;;;;;;16.92;10.40;;;537.60;1305.60;;;;;;4972235;28;20058;-64
2022/03/28 10:45:50;;;;;;;12.32;8.55;;;538.10;1280.00;;;;;;4972382;28;20062;-63
2022/03/28 10:48:17;;;;;;;11.82;9.57;;;537.90;1280.00;;;;;;4972035;28;20023;-60
2022/03/28 10:50:51;;;;;;;16.00;9.50;;;537.80;1280.00;;;;;;4971899;28;20066;-60
2022/03/28 10:53:51;;;;;;;13.43;9.27;;;537.70;1280.00;;;;;;4972156;28;20031;-56
2022/03/28 10:56:33;;;;;;;13.15;8.00;;;538.00;1254.40;;;;;;4972320;28;20552;-60
2022/03/28 10:59:05;;;;;;;17.25;9.52;;;538.30;1280.00;;;;;;4972176;28;20050;-63
2022/03/28 11:01:37;;;;;;;16.10;10.10;;;538.10;1254.40;;;;;;4972186;28;20109;-57
2022/03/28 11:04:12;;;;;;;12.00;9.30;;;538.00;1254.40;;;;;;4971766;28;20098;-56
2022/03/28 11:07:00;;;;;;;14.23;9.02;;;537.80;1280.00;;;;;;4972081;28;20058;-63
2022/03/28 11:09:54;;;;;;;10.65;9.13;;;537.80;1280.00;;;;;;4972127;28;20486;-56
2022/03/28 11:12:37;;;;;;;13.30;10.18;;;538.00;1280.00;;;;;;4972171;28;20055;-57
2022/03/28 11:15:16;;;;;;;18.98;10.02;;;538.40;1305.60;;;;;;4971459;28;20043;-56
2022/03/28 11:18:02;;;;;;;12.65;8.73;;;538.40;1280.00;;;;;;4971682;28;20023;-56
2022/03/28 11:20:44;;;;;;;16.75;8.82;;;538.30;1254.40;;;;;;4971961;28;20089;-62
2022/03/28 11:23:10;;;;;;;14.55;8.18;;;563.20;1254.40;;;;;;4971868;28;20034;-57
2022/03/28 11:25:38;;;;;;;14.02;9.30;;;538.50;1228.80;;;;;;4971570;28;20069;-55
2022/03/28 11:28:12;;;;;;;11.90;8.82;;;563.30;1254.40;;;;;;4971514;28;20085;-61
2022/03/28 11:30:44;;;;;;;14.73;10.18;;;538.40;1228.80;;;;;;4971317;28;20496;-57
2022/03/28 11:33:12;;;;;;;11.63;8.80;;;538.50;1254.40;;;;;;4971829;28;20544;-62
2022/03/28 11:35:40;;;;;;;13.68;9.05;;;538.10;1254.40;;;;;;4971449;28;20031;-56
2022/03/28 11:38:06;;;;;;;12.13;8.60;;;538.20;1254.40;;;;;;4971393;28;20469;-60
2022/03/28 11:40:40;;;;;;;14.32;9.82;;;538.10;1254.40;;;;;;4971324;28;20437;-56
2022/03/28 11:43:06;;;;;;;;;;;538.10;1254.40;;;;;;4971637;28;20417;-55
2022/03/28 11:45:33;;;;;;;12.98;7.95;;;538.50;1228.80;;;;;;4971334;28;19910;-56
2022/03/28 11:47:59;;;;;;;14.85;9.30;;;563.20;1254.40;;;;;;4971320;28;20030;-56
2022/03/28 11:50:32;;;;;;;11.68;8.57;;;563.50;1228.80;;;;;;4971377;28;20385;-58
2022/03/28 11:52:58;;;;;;;13.98;8.98;;;563.60;1228.80;;;;;;4971542;28;20027;-60
2022/03/28 11:55:27;;;;;;;11.70;8.25;;;563.60;1280.00;;;;;;4971342;28;20067;-56
2022/03/28 12:00:39;;;;;;;10.73;8.70;;;564.00;1228.80;;;;;;4971382;28;20038;-56
2022/03/28 12:03:08;;;;;;;16.45;10.85;;;563.60;1254.40;;;;;;4970844;28;20023;-57
2022/03/28 12:05:47;;;;;;;22.90;11.60;;;563.70;1254.40;;;;;;4971311;28;20039;-60
2022/03/28 12:08:16;;;;;;;12.98;8.65;;;563.40;1254.40;;;;;;4971089;28;20050;-57
2022/03/28 12:10:51;;;;;;;10.65;8.18;;;538.50;1254.40;;;;;;4970843;28;20038;-57